sensor_id;sensor_type;location;lat;lon;timestamp;P1;durP1;ratioP1;P2;durP2;ratioP2
7213;SDS011;3648;50.614;13.830;2023-04-08T00:01:56;8.03;;;6.53;;
7213;SDS011;3648;50.614;13.830;2023-04-08T00:04:23;8.40;;;7.60;;
7213;SDS011;3648;50.614;13.830;2023-04-08T00:06:50;7.93;;;7.13;;
7213;SDS011;3648;50.614;13.830;2023-04-08T00:09:17;10.00;;;8.47;;
7213;SDS011;3648;50.614;13.830;2023-04-08T00:11:45;8.67;;;7.50;;
7213;SDS011;3648;50.614;13.830;2023-04-08T00:14:12;8.63;;;7.70;;
7213;SDS011;3648;50.614;13.830;2023-04-08T00:16:39;9.33;;;8.27;;
7213;SDS011;3648;50.614;13.830;2023-04-08T00:19:06;9.40;;;8.40;;
7213;SDS011;3648;50.614;13.830;2023-04-08T00:21:33;11.63;;;9.60;;
7213;SDS011;3648;50.614;13.830;2023-04-08T00:24:00;9.97;;;8.77;;
7213;SDS011;3648;50.614;13.830;2023-04-08T00:26:27;12.10;;;9.40;;
7213;SDS011;3648;50.614;13.830;2023-04-08T00:28:56;11.00;;;8.83;;
7213;SDS011;3648;50.614;13.830;2023-04-08T00:31:23;10.47;;;8.97;;
7213;SDS011;3648;50.614;13.830;2023-04-08T00:33:50;9.97;;;8.77;;
7213;SDS011;3648;50.614;13.830;2023-04-08T00:36:17;11.83;;;9.80;;
7213;SDS011;3648;50.614;13.830;2023-04-08T00:38:43;10.17;;;9.03;;
7213;SDS011;3648;50.614;13.830;2023-04-08T00:41:11;10.60;;;9.27;;
7213;SDS011;3648;50.614;13.830;2023-04-08T00:43:38;10.20;;;8.27;;
7213;SDS011;3648;50.614;13.830;2023-04-08T00:46:07;10.63;;;9.00;;
7213;SDS011;3648;50.614;13.830;2023-04-08T00:48:34;9.47;;;8.47;;
7213;SDS011;3648;50.614;13.830;2023-04-08T00:51:02;10.60;;;8.57;;
7213;SDS011;3648;50.614;13.830;2023-04-08T00:53:29;10.43;;;8.97;;
7213;SDS011;3648;50.614;13.830;2023-04-08T00:55:56;10.57;;;9.17;;
7213;SDS011;3648;50.614;13.830;2023-04-08T00:58:25;10.27;;;8.70;;
7213;SDS011;3648;50.614;13.830;2023-04-08T01:00:54;9.47;;;8.50;;
7213;SDS011;3648;50.614;13.830;2023-04-08T01:03:29;10.20;;;8.97;;
7213;SDS011;3648;50.614;13.830;2023-04-08T01:06:17;11.27;;;8.93;;
7213;SDS011;3648;50.614;13.830;2023-04-08T01:08:48;9.80;;;8.10;;
7213;SDS011;3648;50.614;13.830;2023-04-08T01:11:17;11.07;;;9.23;;
7213;SDS011;3648;50.614;13.830;2023-04-08T01:13:45;10.00;;;9.00;;
7213;SDS011;3648;50.614;13.830;2023-04-08T01:16:14;9.20;;;8.30;;
7213;SDS011;3648;50.614;13.830;2023-04-08T01:18:44;10.20;;;9.00;;
7213;SDS011;3648;50.614;13.830;2023-04-08T01:21:12;11.73;;;10.17;;
7213;SDS011;3648;50.614;13.830;2023-04-08T01:23:42;10.40;;;9.23;;
7213;SDS011;3648;50.614;13.830;2023-04-08T01:26:22;10.27;;;9.23;;
7213;SDS011;3648;50.614;13.830;2023-04-08T01:28:51;11.07;;;9.57;;
7213;SDS011;3648;50.614;13.830;2023-04-08T01:31:20;10.87;;;9.07;;
7213;SDS011;3648;50.614;13.830;2023-04-08T01:33:49;9.53;;;7.73;;
7213;SDS011;3648;50.614;13.830;2023-04-08T01:36:17;8.90;;;8.00;;
7213;SDS011;3648;50.614;13.830;2023-04-08T01:38:46;8.67;;;7.70;;
7213;SDS011;3648;50.614;13.830;2023-04-08T01:41:14;8.53;;;7.53;;
7213;SDS011;3648;50.614;13.830;2023-04-08T01:43:43;8.93;;;7.40;;
7213;SDS011;3648;50.614;13.830;2023-04-08T01:46:12;9.33;;;7.23;;
7213;SDS011;3648;50.614;13.830;2023-04-08T01:48:40;7.80;;;7.00;;
7213;SDS011;3648;50.614;13.830;2023-04-08T01:51:08;9.23;;;7.97;;
7213;SDS011;3648;50.614;13.830;2023-04-08T01:53:36;10.00;;;8.13;;
7213;SDS011;3648;50.614;13.830;2023-04-08T01:56:04;8.77;;;7.87;;
7213;SDS011;3648;50.614;13.830;2023-04-08T01:58:35;8.33;;;7.43;;
7213;SDS011;3648;50.614;13.830;2023-04-08T02:01:08;10.87;;;8.80;;
7213;SDS011;3648;50.614;13.830;2023-04-08T02:03:37;8.60;;;7.80;;
7213;SDS011;3648;50.614;13.830;2023-04-08T02:06:06;8.40;;;7.50;;
7213;SDS011;3648;50.614;13.830;2023-04-08T02:08:33;9.17;;;7.77;;
7213;SDS011;3648;50.614;13.830;2023-04-08T02:11:00;9.30;;;7.90;;
7213;SDS011;3648;50.614;13.830;2023-04-08T02:13:27;9.37;;;7.20;;
7213;SDS011;3648;50.614;13.830;2023-04-08T02:15:56;7.67;;;6.97;;
7213;SDS011;3648;50.614;13.830;2023-04-08T02:18:41;7.87;;;7.07;;
7213;SDS011;3648;50.614;13.830;2023-04-08T02:21:11;6.23;;;5.63;;
7213;SDS011;3648;50.614;13.830;2023-04-08T02:23:41;6.83;;;5.77;;
7213;SDS011;3648;50.614;13.830;2023-04-08T02:26:14;6.80;;;5.20;;
7213;SDS011;3648;50.614;13.830;2023-04-08T02:28:43;6.27;;;5.57;;
7213;SDS011;3648;50.614;13.830;2023-04-08T02:31:11;6.37;;;5.53;;
7213;SDS011;3648;50.614;13.830;2023-04-08T02:33:41;6.60;;;5.90;;
7213;SDS011;3648;50.614;13.830;2023-04-08T02:36:08;6.80;;;6.10;;
7213;SDS011;3648;50.614;13.830;2023-04-08T02:38:36;6.70;;;5.90;;
7213;SDS011;3648;50.614;13.830;2023-04-08T02:41:03;6.47;;;5.63;;
7213;SDS011;3648;50.614;13.830;2023-04-08T02:43:30;5.80;;;5.30;;
7213;SDS011;3648;50.614;13.830;2023-04-08T02:45:57;5.27;;;4.70;;
7213;SDS011;3648;50.614;13.830;2023-04-08T02:48:27;4.87;;;4.40;;
7213;SDS011;3648;50.614;13.830;2023-04-08T02:50:56;4.80;;;4.30;;
7213;SDS011;3648;50.614;13.830;2023-04-08T02:53:22;4.30;;;3.90;;
7213;SDS011;3648;50.614;13.830;2023-04-08T02:55:50;4.63;;;3.97;;
7213;SDS011;3648;50.614;13.830;2023-04-08T02:58:17;4.33;;;3.77;;
7213;SDS011;3648;50.614;13.830;2023-04-08T03:00:44;3.93;;;3.47;;
7213;SDS011;3648;50.614;13.830;2023-04-08T03:03:11;3.83;;;3.43;;
7213;SDS011;3648;50.614;13.830;2023-04-08T03:05:38;4.43;;;3.50;;
7213;SDS011;3648;50.614;13.830;2023-04-08T03:08:06;3.43;;;3.13;;
7213;SDS011;3648;50.614;13.830;2023-04-08T03:10:33;4.43;;;3.37;;
7213;SDS011;3648;50.614;13.830;2023-04-08T03:13:00;3.30;;;3.00;;
7213;SDS011;3648;50.614;13.830;2023-04-08T03:15:27;2.50;;;2.30;;
7213;SDS011;3648;50.614;13.830;2023-04-08T03:17:54;1.90;;;1.70;;
7213;SDS011;3648;50.614;13.830;2023-04-08T03:20:21;1.87;;;1.43;;
7213;SDS011;3648;50.614;13.830;2023-04-08T03:22:48;1.50;;;1.40;;
7213;SDS011;3648;50.614;13.830;2023-04-08T03:25:16;1.13;;;1.00;;
7213;SDS011;3648;50.614;13.830;2023-04-08T03:27:43;1.50;;;0.80;;
7213;SDS011;3648;50.614;13.830;2023-04-08T03:30:10;1.30;;;0.97;;
7213;SDS011;3648;50.614;13.830;2023-04-08T03:32:37;1.00;;;0.90;;
7213;SDS011;3648;50.614;13.830;2023-04-08T03:35:04;1.10;;;1.00;;
7213;SDS011;3648;50.614;13.830;2023-04-08T03:37:31;0.67;;;0.67;;
7213;SDS011;3648;50.614;13.830;2023-04-08T03:39:58;1.20;;;0.90;;
7213;SDS011;3648;50.614;13.830;2023-04-08T03:42:27;0.90;;;0.80;;
7213;SDS011;3648;50.614;13.830;2023-04-08T03:44:53;0.90;;;0.73;;
7213;SDS011;3648;50.614;13.830;2023-04-08T03:47:21;0.97;;;0.90;;
7213;SDS011;3648;50.614;13.830;2023-04-08T03:49:48;1.43;;;0.80;;
7213;SDS011;3648;50.614;13.830;2023-04-08T03:52:15;0.87;;;0.60;;
7213;SDS011;3648;50.614;13.830;2023-04-08T03:54:41;0.90;;;0.80;;
7213;SDS011;3648;50.614;13.830;2023-04-08T03:57:08;0.80;;;0.80;;
7213;SDS011;3648;50.614;13.830;2023-04-08T03:59:37;2.00;;;1.80;;
7213;SDS011;3648;50.614;13.830;2023-04-08T04:02:05;3.10;;;2.80;;
7213;SDS011;3648;50.614;13.830;2023-04-08T04:04:32;3.07;;;2.80;;
7213;SDS011;3648;50.614;13.830;2023-04-08T04:07:00;4.70;;;3.80;;
7213;SDS011;3648;50.614;13.830;2023-04-08T04:09:27;5.43;;;4.40;;
7213;SDS011;3648;50.614;13.830;2023-04-08T04:11:54;5.00;;;4.50;;
7213;SDS011;3648;50.614;13.830;2023-04-08T04:14:21;3.90;;;3.50;;
7213;SDS011;3648;50.614;13.830;2023-04-08T04:16:49;4.10;;;3.70;;
7213;SDS011;3648;50.614;13.830;2023-04-08T04:19:16;2.87;;;2.63;;
7213;SDS011;3648;50.614;13.830;2023-04-08T04:21:43;2.83;;;2.53;;
7213;SDS011;3648;50.614;13.830;2023-04-08T04:24:10;2.00;;;1.70;;
7213;SDS011;3648;50.614;13.830;2023-04-08T04:26:39;3.23;;;1.83;;
7213;SDS011;3648;50.614;13.830;2023-04-08T04:29:06;2.10;;;1.87;;
7213;SDS011;3648;50.614;13.830;2023-04-08T04:31:33;2.77;;;2.37;;
7213;SDS011;3648;50.614;13.830;2023-04-08T04:34:01;2.53;;;2.33;;
7213;SDS011;3648;50.614;13.830;2023-04-08T04:36:28;1.83;;;1.50;;
7213;SDS011;3648;50.614;13.830;2023-04-08T04:38:56;1.67;;;1.43;;
7213;SDS011;3648;50.614;13.830;2023-04-08T04:41:23;1.23;;;1.00;;
7213;SDS011;3648;50.614;13.830;2023-04-08T04:43:51;1.10;;;1.00;;
7213;SDS011;3648;50.614;13.830;2023-04-08T04:46:18;1.13;;;0.87;;
7213;SDS011;3648;50.614;13.830;2023-04-08T04:48:45;1.77;;;0.70;;
7213;SDS011;3648;50.614;13.830;2023-04-08T04:51:13;1.30;;;1.00;;
7213;SDS011;3648;50.614;13.830;2023-04-08T04:53:40;1.07;;;0.80;;
7213;SDS011;3648;50.614;13.830;2023-04-08T04:56:07;2.13;;;1.00;;
7213;SDS011;3648;50.614;13.830;2023-04-08T04:58:34;0.80;;;0.80;;
7213;SDS011;3648;50.614;13.830;2023-04-08T05:01:01;1.40;;;1.00;;
7213;SDS011;3648;50.614;13.830;2023-04-08T05:03:29;1.77;;;1.10;;
7213;SDS011;3648;50.614;13.830;2023-04-08T05:05:56;0.87;;;0.80;;
7213;SDS011;3648;50.614;13.830;2023-04-08T05:08:24;1.23;;;1.00;;
7213;SDS011;3648;50.614;13.830;2023-04-08T05:10:52;1.27;;;0.87;;
7213;SDS011;3648;50.614;13.830;2023-04-08T05:13:20;1.60;;;1.00;;
7213;SDS011;3648;50.614;13.830;2023-04-08T05:15:48;2.03;;;1.07;;
7213;SDS011;3648;50.614;13.830;2023-04-08T05:18:15;1.23;;;0.93;;
7213;SDS011;3648;50.614;13.830;2023-04-08T05:20:42;1.00;;;0.90;;
7213;SDS011;3648;50.614;13.830;2023-04-08T05:23:09;0.90;;;0.80;;
7213;SDS011;3648;50.614;13.830;2023-04-08T05:25:37;1.10;;;1.00;;
7213;SDS011;3648;50.614;13.830;2023-04-08T05:28:04;0.90;;;0.80;;
7213;SDS011;3648;50.614;13.830;2023-04-08T05:30:31;1.63;;;1.13;;
7213;SDS011;3648;50.614;13.830;2023-04-08T05:32:58;1.40;;;1.10;;
7213;SDS011;3648;50.614;13.830;2023-04-08T05:35:26;1.90;;;1.60;;
7213;SDS011;3648;50.614;13.830;2023-04-08T05:37:54;1.97;;;1.73;;
7213;SDS011;3648;50.614;13.830;2023-04-08T05:40:20;0.90;;;0.90;;
7213;SDS011;3648;50.614;13.830;2023-04-08T05:42:49;1.50;;;1.10;;
7213;SDS011;3648;50.614;13.830;2023-04-08T05:45:16;1.63;;;1.40;;
7213;SDS011;3648;50.614;13.830;2023-04-08T05:47:43;1.43;;;1.13;;
7213;SDS011;3648;50.614;13.830;2023-04-08T05:50:10;1.30;;;1.20;;
7213;SDS011;3648;50.614;13.830;2023-04-08T05:52:40;1.73;;;1.20;;
7213;SDS011;3648;50.614;13.830;2023-04-08T05:55:08;2.77;;;1.27;;
7213;SDS011;3648;50.614;13.830;2023-04-08T05:57:36;1.83;;;1.20;;
7213;SDS011;3648;50.614;13.830;2023-04-08T06:00:05;1.23;;;1.00;;
7213;SDS011;3648;50.614;13.830;2023-04-08T06:02:33;1.93;;;1.40;;
7213;SDS011;3648;50.614;13.830;2023-04-08T06:05:01;1.53;;;1.33;;
7213;SDS011;3648;50.614;13.830;2023-04-08T06:07:29;1.43;;;1.10;;
7213;SDS011;3648;50.614;13.830;2023-04-08T06:09:57;0.97;;;0.87;;
7213;SDS011;3648;50.614;13.830;2023-04-08T06:12:24;2.40;;;1.03;;
7213;SDS011;3648;50.614;13.830;2023-04-08T06:14:52;1.20;;;1.10;;
7213;SDS011;3648;50.614;13.830;2023-04-08T06:17:22;1.20;;;0.90;;
7213;SDS011;3648;50.614;13.830;2023-04-08T06:19:49;1.13;;;0.90;;
7213;SDS011;3648;50.614;13.830;2023-04-08T06:22:16;1.80;;;1.10;;
7213;SDS011;3648;50.614;13.830;2023-04-08T06:24:43;1.00;;;0.90;;
7213;SDS011;3648;50.614;13.830;2023-04-08T06:27:12;0.97;;;0.70;;
7213;SDS011;3648;50.614;13.830;2023-04-08T06:29:39;1.10;;;0.93;;
7213;SDS011;3648;50.614;13.830;2023-04-08T06:32:06;1.47;;;1.10;;
7213;SDS011;3648;50.614;13.830;2023-04-08T06:34:34;1.00;;;0.90;;
7213;SDS011;3648;50.614;13.830;2023-04-08T06:37:02;1.20;;;1.00;;
7213;SDS011;3648;50.614;13.830;2023-04-08T06:39:30;1.20;;;1.10;;
7213;SDS011;3648;50.614;13.830;2023-04-08T06:41:57;1.23;;;1.00;;
7213;SDS011;3648;50.614;13.830;2023-04-08T06:44:24;1.20;;;0.70;;
7213;SDS011;3648;50.614;13.830;2023-04-08T06:46:51;1.37;;;0.90;;
7213;SDS011;3648;50.614;13.830;2023-04-08T06:49:19;1.10;;;1.00;;
7213;SDS011;3648;50.614;13.830;2023-04-08T06:51:47;1.30;;;1.10;;
7213;SDS011;3648;50.614;13.830;2023-04-08T06:54:15;1.97;;;1.33;;
7213;SDS011;3648;50.614;13.830;2023-04-08T06:56:42;2.23;;;1.30;;
7213;SDS011;3648;50.614;13.830;2023-04-08T06:59:09;1.60;;;1.50;;
7213;SDS011;3648;50.614;13.830;2023-04-08T07:01:36;3.00;;;1.50;;
7213;SDS011;3648;50.614;13.830;2023-04-08T07:04:04;2.50;;;2.00;;
7213;SDS011;3648;50.614;13.830;2023-04-08T07:06:31;2.93;;;1.90;;
7213;SDS011;3648;50.614;13.830;2023-04-08T07:08:59;2.53;;;1.80;;
7213;SDS011;3648;50.614;13.830;2023-04-08T07:11:26;2.23;;;1.63;;
7213;SDS011;3648;50.614;13.830;2023-04-08T07:13:53;2.00;;;1.70;;
7213;SDS011;3648;50.614;13.830;2023-04-08T07:16:20;2.30;;;1.73;;
7213;SDS011;3648;50.614;13.830;2023-04-08T07:18:47;2.63;;;1.67;;
7213;SDS011;3648;50.614;13.830;2023-04-08T07:21:15;2.23;;;1.83;;
7213;SDS011;3648;50.614;13.830;2023-04-08T07:23:42;2.87;;;1.93;;
7213;SDS011;3648;50.614;13.830;2023-04-08T07:26:11;1.67;;;1.43;;
7213;SDS011;3648;50.614;13.830;2023-04-08T07:28:38;1.73;;;1.50;;
7213;SDS011;3648;50.614;13.830;2023-04-08T07:31:09;2.13;;;1.70;;
7213;SDS011;3648;50.614;13.830;2023-04-08T07:33:37;2.63;;;1.90;;
7213;SDS011;3648;50.614;13.830;2023-04-08T07:36:04;1.37;;;1.27;;
7213;SDS011;3648;50.614;13.830;2023-04-08T07:38:31;2.07;;;1.50;;
7213;SDS011;3648;50.614;13.830;2023-04-08T07:40:58;2.50;;;1.50;;
7213;SDS011;3648;50.614;13.830;2023-04-08T07:43:27;1.60;;;1.50;;
7213;SDS011;3648;50.614;13.830;2023-04-08T07:45:58;1.90;;;1.67;;
7213;SDS011;3648;50.614;13.830;2023-04-08T07:48:27;2.70;;;2.13;;
7213;SDS011;3648;50.614;13.830;2023-04-08T07:50:54;2.33;;;1.60;;
7213;SDS011;3648;50.614;13.830;2023-04-08T07:53:21;1.70;;;1.50;;
7213;SDS011;3648;50.614;13.830;2023-04-08T07:55:50;1.97;;;1.80;;
7213;SDS011;3648;50.614;13.830;2023-04-08T07:58:17;1.50;;;1.40;;
7213;SDS011;3648;50.614;13.830;2023-04-08T08:00:46;1.60;;;1.50;;
7213;SDS011;3648;50.614;13.830;2023-04-08T08:03:13;1.97;;;1.73;;
7213;SDS011;3648;50.614;13.830;2023-04-08T08:05:40;1.90;;;1.47;;
7213;SDS011;3648;50.614;13.830;2023-04-08T08:08:08;2.20;;;2.00;;
7213;SDS011;3648;50.614;13.830;2023-04-08T08:10:37;1.93;;;1.73;;
7213;SDS011;3648;50.614;13.830;2023-04-08T08:13:04;2.07;;;1.83;;
7213;SDS011;3648;50.614;13.830;2023-04-08T08:15:32;1.90;;;1.70;;
7213;SDS011;3648;50.614;13.830;2023-04-08T08:18:01;2.50;;;2.13;;
7213;SDS011;3648;50.614;13.830;2023-04-08T08:20:28;2.20;;;2.00;;
7213;SDS011;3648;50.614;13.830;2023-04-08T08:22:55;2.60;;;2.30;;
7213;SDS011;3648;50.614;13.830;2023-04-08T08:25:22;3.97;;;3.20;;
7213;SDS011;3648;50.614;13.830;2023-04-08T08:27:50;3.97;;;3.60;;
7213;SDS011;3648;50.614;13.830;2023-04-08T08:30:17;3.97;;;3.63;;
7213;SDS011;3648;50.614;13.830;2023-04-08T08:32:46;3.53;;;3.23;;
7213;SDS011;3648;50.614;13.830;2023-04-08T08:35:15;2.90;;;2.60;;
7213;SDS011;3648;50.614;13.830;2023-04-08T08:37:42;3.17;;;2.40;;
7213;SDS011;3648;50.614;13.830;2023-04-08T08:40:09;2.60;;;2.40;;
7213;SDS011;3648;50.614;13.830;2023-04-08T08:42:37;2.57;;;2.37;;
7213;SDS011;3648;50.614;13.830;2023-04-08T08:45:06;4.17;;;2.53;;
7213;SDS011;3648;50.614;13.830;2023-04-08T08:47:34;2.37;;;2.17;;
7213;SDS011;3648;50.614;13.830;2023-04-08T08:50:02;3.40;;;3.10;;
7213;SDS011;3648;50.614;13.830;2023-04-08T08:52:30;3.30;;;3.00;;
7213;SDS011;3648;50.614;13.830;2023-04-08T08:54:58;3.43;;;3.00;;
7213;SDS011;3648;50.614;13.830;2023-04-08T08:57:25;3.50;;;3.10;;
7213;SDS011;3648;50.614;13.830;2023-04-08T08:59:52;3.17;;;2.87;;
7213;SDS011;3648;50.614;13.830;2023-04-08T09:02:26;3.73;;;3.20;;
7213;SDS011;3648;50.614;13.830;2023-04-08T09:04:57;3.33;;;3.03;;
7213;SDS011;3648;50.614;13.830;2023-04-08T09:07:26;2.93;;;2.73;;
7213;SDS011;3648;50.614;13.830;2023-04-08T09:09:55;3.50;;;3.20;;
7213;SDS011;3648;50.614;13.830;2023-04-08T09:12:23;4.13;;;3.40;;
7213;SDS011;3648;50.614;13.830;2023-04-08T09:15:01;3.43;;;3.13;;
7213;SDS011;3648;50.614;13.830;2023-04-08T09:17:33;3.67;;;3.37;;
7213;SDS011;3648;50.614;13.830;2023-04-08T09:20:03;4.07;;;3.67;;
7213;SDS011;3648;50.614;13.830;2023-04-08T09:25:22;3.63;;;3.33;;
7213;SDS011;3648;50.614;13.830;2023-04-08T09:27:50;3.50;;;3.20;;
7213;SDS011;3648;50.614;13.830;2023-04-08T09:30:19;3.30;;;3.00;;
7213;SDS011;3648;50.614;13.830;2023-04-08T09:32:48;3.77;;;3.27;;
7213;SDS011;3648;50.614;13.830;2023-04-08T09:35:16;3.40;;;3.10;;
7213;SDS011;3648;50.614;13.830;2023-04-08T09:37:44;3.13;;;2.83;;
7213;SDS011;3648;50.614;13.830;2023-04-08T09:40:12;3.40;;;3.10;;
7213;SDS011;3648;50.614;13.830;2023-04-08T09:42:44;3.57;;;3.27;;
7213;SDS011;3648;50.614;13.830;2023-04-08T09:45:15;3.60;;;3.30;;
7213;SDS011;3648;50.614;13.830;2023-04-08T09:47:43;3.50;;;3.20;;
7213;SDS011;3648;50.614;13.830;2023-04-08T09:50:22;4.40;;;4.00;;
7213;SDS011;3648;50.614;13.830;2023-04-08T09:52:56;4.20;;;3.90;;
7213;SDS011;3648;50.614;13.830;2023-04-08T09:55:29;4.37;;;3.97;;
7213;SDS011;3648;50.614;13.830;2023-04-08T09:58:03;4.50;;;4.10;;
7213;SDS011;3648;50.614;13.830;2023-04-08T10:00:37;4.30;;;3.93;;
7213;SDS011;3648;50.614;13.830;2023-04-08T10:03:12;3.93;;;3.63;;
7213;SDS011;3648;50.614;13.830;2023-04-08T10:05:52;4.63;;;3.87;;
7213;SDS011;3648;50.614;13.830;2023-04-08T10:08:21;3.97;;;3.57;;
7213;SDS011;3648;50.614;13.830;2023-04-08T10:10:49;3.73;;;3.43;;
7213;SDS011;3648;50.614;13.830;2023-04-08T10:13:18;4.03;;;3.70;;
7213;SDS011;3648;50.614;13.830;2023-04-08T10:15:48;4.73;;;4.33;;
7213;SDS011;3648;50.614;13.830;2023-04-08T10:18:29;5.03;;;4.60;;
7213;SDS011;3648;50.614;13.830;2023-04-08T10:20:59;4.13;;;3.73;;
7213;SDS011;3648;50.614;13.830;2023-04-08T10:26:29;3.90;;;3.50;;
7213;SDS011;3648;50.614;13.830;2023-04-08T10:31:59;4.67;;;4.27;;
7213;SDS011;3648;50.614;13.830;2023-04-08T10:34:27;4.07;;;3.50;;
7213;SDS011;3648;50.614;13.830;2023-04-08T10:36:55;4.73;;;3.97;;
7213;SDS011;3648;50.614;13.830;2023-04-08T10:39:27;3.80;;;3.30;;
7213;SDS011;3648;50.614;13.830;2023-04-08T10:41:57;4.43;;;4.00;;
7213;SDS011;3648;50.614;13.830;2023-04-08T10:44:28;4.60;;;4.20;;
7213;SDS011;3648;50.614;13.830;2023-04-08T10:46:59;4.33;;;3.93;;
7213;SDS011;3648;50.614;13.830;2023-04-08T10:49:36;4.97;;;4.47;;
7213;SDS011;3648;50.614;13.830;2023-04-08T10:52:05;5.27;;;4.47;;
7213;SDS011;3648;50.614;13.830;2023-04-08T10:54:34;5.37;;;4.80;;
7213;SDS011;3648;50.614;13.830;2023-04-08T10:57:02;6.03;;;5.30;;
7213;SDS011;3648;50.614;13.830;2023-04-08T10:59:31;4.60;;;4.20;;
7213;SDS011;3648;50.614;13.830;2023-04-08T11:02:00;5.30;;;4.80;;
7213;SDS011;3648;50.614;13.830;2023-04-08T11:04:27;5.37;;;4.77;;
7213;SDS011;3648;50.614;13.830;2023-04-08T11:06:55;5.73;;;5.13;;
7213;SDS011;3648;50.614;13.830;2023-04-08T11:09:22;5.80;;;5.10;;
7213;SDS011;3648;50.614;13.830;2023-04-08T11:11:50;5.63;;;5.03;;
7213;SDS011;3648;50.614;13.830;2023-04-08T11:14:19;6.77;;;6.10;;
7213;SDS011;3648;50.614;13.830;2023-04-08T11:16:48;6.47;;;5.87;;
7213;SDS011;3648;50.614;13.830;2023-04-08T11:19:17;5.83;;;5.23;;
7213;SDS011;3648;50.614;13.830;2023-04-08T11:21:45;6.07;;;5.43;;
7213;SDS011;3648;50.614;13.830;2023-04-08T11:24:13;6.43;;;5.80;;
7213;SDS011;3648;50.614;13.830;2023-04-08T11:26:41;6.77;;;5.83;;
7213;SDS011;3648;50.614;13.830;2023-04-08T11:29:09;7.23;;;5.63;;
7213;SDS011;3648;50.614;13.830;2023-04-08T11:31:41;5.87;;;4.93;;
7213;SDS011;3648;50.614;13.830;2023-04-08T11:34:09;5.83;;;5.13;;
7213;SDS011;3648;50.614;13.830;2023-04-08T11:36:38;7.17;;;5.70;;
7213;SDS011;3648;50.614;13.830;2023-04-08T11:39:06;6.43;;;5.83;;
7213;SDS011;3648;50.614;13.830;2023-04-08T11:41:36;7.13;;;6.43;;
7213;SDS011;3648;50.614;13.830;2023-04-08T11:44:04;6.00;;;5.40;;
7213;SDS011;3648;50.614;13.830;2023-04-08T11:46:32;7.03;;;5.93;;
7213;SDS011;3648;50.614;13.830;2023-04-08T11:49:01;6.00;;;5.40;;
7213;SDS011;3648;50.614;13.830;2023-04-08T11:51:30;6.70;;;6.07;;
7213;SDS011;3648;50.614;13.830;2023-04-08T11:54:00;6.97;;;5.60;;
7213;SDS011;3648;50.614;13.830;2023-04-08T11:56:42;5.90;;;5.13;;
7213;SDS011;3648;50.614;13.830;2023-04-08T11:59:11;6.90;;;5.57;;
7213;SDS011;3648;50.614;13.830;2023-04-08T12:01:38;6.27;;;5.67;;
7213;SDS011;3648;50.614;13.830;2023-04-08T12:04:06;6.47;;;5.80;;
7213;SDS011;3648;50.614;13.830;2023-04-08T12:06:34;7.03;;;6.03;;
7213;SDS011;3648;50.614;13.830;2023-04-08T12:09:03;7.50;;;6.80;;
7213;SDS011;3648;50.614;13.830;2023-04-08T12:11:30;6.67;;;5.97;;
7213;SDS011;3648;50.614;13.830;2023-04-08T12:13:58;7.57;;;6.17;;
7213;SDS011;3648;50.614;13.830;2023-04-08T12:16:25;7.20;;;6.10;;
7213;SDS011;3648;50.614;13.830;2023-04-08T12:18:52;7.60;;;6.80;;
7213;SDS011;3648;50.614;13.830;2023-04-08T12:21:20;7.10;;;6.20;;
7213;SDS011;3648;50.614;13.830;2023-04-08T12:23:47;7.37;;;6.23;;
7213;SDS011;3648;50.614;13.830;2023-04-08T12:26:16;7.83;;;6.90;;
7213;SDS011;3648;50.614;13.830;2023-04-08T12:28:43;8.03;;;6.97;;
7213;SDS011;3648;50.614;13.830;2023-04-08T12:31:11;7.90;;;7.10;;
7213;SDS011;3648;50.614;13.830;2023-04-08T12:33:38;7.70;;;6.90;;
7213;SDS011;3648;50.614;13.830;2023-04-08T12:36:06;7.83;;;6.30;;
7213;SDS011;3648;50.614;13.830;2023-04-08T12:38:34;6.43;;;5.77;;
7213;SDS011;3648;50.614;13.830;2023-04-08T12:41:02;7.30;;;6.13;;
7213;SDS011;3648;50.614;13.830;2023-04-08T12:43:31;6.57;;;5.37;;
7213;SDS011;3648;50.614;13.830;2023-04-08T12:45:58;7.03;;;6.00;;
7213;SDS011;3648;50.614;13.830;2023-04-08T12:48:27;5.87;;;5.17;;
7213;SDS011;3648;50.614;13.830;2023-04-08T12:50:54;6.03;;;5.43;;
7213;SDS011;3648;50.614;13.830;2023-04-08T12:53:23;7.17;;;5.93;;
7213;SDS011;3648;50.614;13.830;2023-04-08T12:55:50;7.83;;;6.10;;
7213;SDS011;3648;50.614;13.830;2023-04-08T12:58:21;6.57;;;5.60;;
7213;SDS011;3648;50.614;13.830;2023-04-08T13:00:50;5.53;;;4.90;;
7213;SDS011;3648;50.614;13.830;2023-04-08T13:03:18;6.13;;;5.50;;
7213;SDS011;3648;50.614;13.830;2023-04-08T13:05:45;6.30;;;5.53;;
7213;SDS011;3648;50.614;13.830;2023-04-08T13:08:13;6.00;;;5.00;;
7213;SDS011;3648;50.614;13.830;2023-04-08T13:10:41;7.70;;;6.17;;
7213;SDS011;3648;50.614;13.830;2023-04-08T13:13:10;6.20;;;5.63;;
7213;SDS011;3648;50.614;13.830;2023-04-08T13:15:38;7.03;;;6.33;;
7213;SDS011;3648;50.614;13.830;2023-04-08T13:18:07;7.33;;;5.90;;
7213;SDS011;3648;50.614;13.830;2023-04-08T13:20:34;6.50;;;5.47;;
7213;SDS011;3648;50.614;13.830;2023-04-08T13:23:02;7.40;;;5.93;;
7213;SDS011;3648;50.614;13.830;2023-04-08T13:25:29;7.07;;;6.03;;
7213;SDS011;3648;50.614;13.830;2023-04-08T13:27:57;6.40;;;5.73;;
7213;SDS011;3648;50.614;13.830;2023-04-08T13:30:25;6.40;;;5.63;;
7213;SDS011;3648;50.614;13.830;2023-04-08T13:32:52;7.60;;;6.00;;
7213;SDS011;3648;50.614;13.830;2023-04-08T13:35:23;5.93;;;5.33;;
7213;SDS011;3648;50.614;13.830;2023-04-08T13:37:51;6.83;;;5.23;;
7213;SDS011;3648;50.614;13.830;2023-04-08T13:40:20;7.20;;;5.87;;
7213;SDS011;3648;50.614;13.830;2023-04-08T13:42:48;7.03;;;6.13;;
7213;SDS011;3648;50.614;13.830;2023-04-08T13:45:16;7.33;;;5.70;;
7213;SDS011;3648;50.614;13.830;2023-04-08T13:47:44;6.60;;;5.63;;
7213;SDS011;3648;50.614;13.830;2023-04-08T13:50:13;5.30;;;4.80;;
7213;SDS011;3648;50.614;13.830;2023-04-08T13:52:44;6.13;;;5.10;;
7213;SDS011;3648;50.614;13.830;2023-04-08T13:55:12;6.17;;;5.40;;
7213;SDS011;3648;50.614;13.830;2023-04-08T13:57:40;6.67;;;5.40;;
7213;SDS011;3648;50.614;13.830;2023-04-08T14:00:08;6.43;;;5.83;;
7213;SDS011;3648;50.614;13.830;2023-04-08T14:02:37;6.70;;;5.77;;
7213;SDS011;3648;50.614;13.830;2023-04-08T14:05:05;8.00;;;6.70;;
7213;SDS011;3648;50.614;13.830;2023-04-08T14:07:33;7.93;;;7.13;;
7213;SDS011;3648;50.614;13.830;2023-04-08T14:10:02;8.00;;;7.10;;
7213;SDS011;3648;50.614;13.830;2023-04-08T14:12:30;7.83;;;7.03;;
7213;SDS011;3648;50.614;13.830;2023-04-08T14:14:57;8.03;;;7.20;;
7213;SDS011;3648;50.614;13.830;2023-04-08T14:17:24;9.27;;;7.93;;
7213;SDS011;3648;50.614;13.830;2023-04-08T14:19:51;8.00;;;7.03;;
7213;SDS011;3648;50.614;13.830;2023-04-08T14:22:18;8.03;;;7.10;;
7213;SDS011;3648;50.614;13.830;2023-04-08T14:24:45;8.17;;;7.23;;
7213;SDS011;3648;50.614;13.830;2023-04-08T14:27:13;7.23;;;6.53;;
7213;SDS011;3648;50.614;13.830;2023-04-08T14:29:40;8.60;;;7.60;;
7213;SDS011;3648;50.614;13.830;2023-04-08T14:32:08;8.73;;;7.50;;
7213;SDS011;3648;50.614;13.830;2023-04-08T14:34:35;8.20;;;6.20;;
7213;SDS011;3648;50.614;13.830;2023-04-08T14:37:02;7.70;;;6.77;;
7213;SDS011;3648;50.614;13.830;2023-04-08T14:39:30;7.87;;;6.97;;
7213;SDS011;3648;50.614;13.830;2023-04-08T14:41:58;7.93;;;6.97;;
7213;SDS011;3648;50.614;13.830;2023-04-08T14:44:27;8.50;;;7.43;;
7213;SDS011;3648;50.614;13.830;2023-04-08T14:46:55;8.73;;;7.70;;
7213;SDS011;3648;50.614;13.830;2023-04-08T14:49:22;8.60;;;7.57;;
7213;SDS011;3648;50.614;13.830;2023-04-08T14:51:50;9.07;;;8.10;;
7213;SDS011;3648;50.614;13.830;2023-04-08T14:54:18;9.93;;;8.10;;
7213;SDS011;3648;50.614;13.830;2023-04-08T14:56:48;9.40;;;8.47;;
7213;SDS011;3648;50.614;13.830;2023-04-08T14:59:16;8.77;;;7.87;;
7213;SDS011;3648;50.614;13.830;2023-04-08T15:01:44;9.23;;;7.57;;
7213;SDS011;3648;50.614;13.830;2023-04-08T15:04:11;10.47;;;8.77;;
7213;SDS011;3648;50.614;13.830;2023-04-08T15:06:45;9.87;;;8.87;;
7213;SDS011;3648;50.614;13.830;2023-04-08T15:09:15;10.13;;;8.43;;
7213;SDS011;3648;50.614;13.830;2023-04-08T15:11:43;10.80;;;8.70;;
7213;SDS011;3648;50.614;13.830;2023-04-08T15:14:10;10.00;;;8.80;;
7213;SDS011;3648;50.614;13.830;2023-04-08T15:16:37;10.07;;;8.70;;